createdAt,value
2018-04-10T00:01:03.705Z,28.70
2018-04-10T00:03:31.203Z,31.10
2018-04-10T00:05:59.085Z,31.20
2018-04-10T00:08:27.014Z,30.00
2018-04-10T00:10:54.510Z,32.90
2018-04-10T00:13:22.402Z,31.77
2018-04-10T00:15:49.912Z,29.23
2018-04-10T00:18:17.405Z,31.37
2018-04-10T00:20:44.908Z,33.40
2018-04-10T00:23:12.461Z,31.30
2018-04-10T00:25:39.975Z,33.73
2018-04-10T00:28:07.481Z,32.83
2018-04-10T00:30:35.016Z,31.10
2018-04-10T00:33:02.514Z,31.33
2018-04-10T00:35:29.998Z,32.77
2018-04-10T00:37:57.517Z,31.47
2018-04-10T00:40:25.017Z,31.83
2018-04-10T00:42:52.512Z,33.50
2018-04-10T00:45:20.034Z,32.63
2018-04-10T00:47:47.572Z,31.27
2018-04-10T00:50:15.461Z,32.33
2018-04-10T00:52:42.985Z,32.40
2018-04-10T00:55:10.889Z,31.80
2018-04-10T00:57:38.393Z,32.10
2018-04-10T01:00:05.925Z,34.17
2018-04-10T01:02:33.417Z,35.03
2018-04-10T01:05:00.920Z,32.07
2018-04-10T01:07:28.470Z,34.73
2018-04-10T01:09:55.974Z,29.50
2018-04-10T01:12:24.230Z,31.40
2018-04-10T01:14:51.748Z,35.27
2018-04-10T01:17:19.649Z,33.20
2018-04-10T01:19:47.184Z,30.53
2018-04-10T01:22:14.679Z,30.80
2018-04-10T01:24:42.197Z,31.97
2018-04-10T01:27:09.698Z,30.83
2018-04-10T01:29:38.116Z,34.33
2018-04-10T01:32:06.032Z,31.53
2018-04-10T01:34:33.537Z,36.80
2018-04-10T01:37:01.424Z,33.47
2018-04-10T01:39:29.106Z,31.40
2018-04-10T01:41:56.592Z,32.67
2018-04-10T01:44:24.088Z,33.07
2018-04-10T01:46:51.995Z,32.50
2018-04-10T01:49:19.481Z,34.63
2018-04-10T01:51:47.008Z,32.97
2018-04-10T01:54:14.494Z,36.07
2018-04-10T01:56:42.021Z,35.83
2018-04-10T01:59:09.509Z,35.23
2018-04-10T02:01:37.025Z,36.43
2018-04-10T02:04:04.533Z,37.33
2018-04-10T02:06:32.041Z,32.90
2018-04-10T02:08:59.535Z,36.23
2018-04-10T02:11:27.023Z,33.57
2018-04-10T02:13:54.556Z,37.07
2018-04-10T02:16:22.149Z,61.77
2018-04-10T02:18:49.688Z,44.37
2018-04-10T02:21:17.163Z,49.67
2018-04-10T02:23:45.072Z,44.47
2018-04-10T02:26:12.542Z,45.07
2018-04-10T02:28:40.035Z,40.57
2018-04-10T02:31:07.902Z,40.23
2018-04-10T02:33:35.795Z,36.80
2018-04-10T02:36:03.278Z,36.23
2018-04-10T02:38:30.790Z,37.13
2018-04-10T02:40:58.680Z,32.83
2018-04-10T02:43:26.164Z,35.70
2018-04-10T02:45:53.706Z,36.13
2018-04-10T02:48:21.231Z,35.17
2018-04-10T02:50:49.098Z,33.40
2018-04-10T02:53:16.974Z,34.43
2018-04-10T02:55:44.470Z,31.73
2018-04-10T02:58:11.972Z,34.57
2018-04-10T03:00:39.876Z,34.27
2018-04-10T03:03:07.354Z,33.67
2018-04-10T03:05:34.839Z,35.50
2018-04-10T03:08:02.323Z,37.27
2018-04-10T03:10:29.809Z,86.60
2018-04-10T03:12:57.302Z,54.50
2018-04-10T03:15:24.779Z,45.03
2018-04-10T03:17:52.676Z,48.77
2018-04-10T03:20:20.152Z,38.27
2018-04-10T03:22:47.619Z,37.97
2018-04-10T03:25:15.101Z,37.13
2018-04-10T03:27:42.583Z,41.53
2018-04-10T03:30:10.059Z,38.63
2018-04-10T03:32:37.575Z,37.23
2018-04-10T03:35:05.058Z,37.73
2018-04-10T03:37:32.526Z,38.13
2018-04-10T03:40:00.010Z,35.47
2018-04-10T03:42:27.522Z,34.23
2018-04-10T03:44:55.413Z,33.43
2018-04-10T03:47:22.926Z,33.97
2018-04-10T03:49:51.318Z,36.03
2018-04-10T03:52:19.218Z,36.77
2018-04-10T03:54:46.689Z,33.70
2018-04-10T03:57:14.178Z,34.23
2018-04-10T03:59:41.655Z,36.20
2018-04-10T04:02:09.583Z,31.60
2018-04-10T04:04:37.071Z,36.83
2018-04-10T04:07:04.545Z,36.87
2018-04-10T04:09:32.452Z,50.20
2018-04-10T04:11:59.927Z,52.37
2018-04-10T04:14:27.402Z,46.53
2018-04-10T04:20:12.783Z,42.17
2018-04-10T04:22:40.263Z,37.03
2018-04-10T04:25:08.133Z,34.63
2018-04-10T04:27:36.019Z,36.67
2018-04-10T04:30:03.528Z,35.27
2018-04-10T04:32:31.020Z,33.57
2018-04-10T04:34:59.466Z,37.60
2018-04-10T04:37:26.934Z,37.53
2018-04-10T04:39:54.432Z,35.63
2018-04-10T04:42:21.930Z,35.87
2018-04-10T04:44:49.419Z,38.90
2018-04-10T04:47:16.912Z,39.17
2018-04-10T04:49:44.434Z,38.67
2018-04-10T04:52:12.329Z,39.33
2018-04-10T04:54:39.842Z,39.83
2018-04-10T04:57:07.343Z,40.03
2018-04-10T04:59:34.868Z,41.57
2018-04-10T05:02:02.309Z,39.03
2018-04-10T05:04:29.797Z,36.57
2018-04-10T05:06:57.678Z,40.37
2018-04-10T05:09:25.209Z,40.37
2018-04-10T05:11:52.673Z,34.90
2018-04-10T05:14:20.997Z,36.03
2018-04-10T05:16:48.505Z,35.77
2018-04-10T05:19:17.303Z,34.33
2018-04-10T05:21:45.199Z,31.40
2018-04-10T05:24:12.719Z,33.07
2018-04-10T05:26:40.209Z,35.27
2018-04-10T05:29:07.684Z,33.10
2018-04-10T05:31:35.165Z,32.80
2018-04-10T05:34:02.665Z,37.17
2018-04-10T05:36:30.165Z,31.23
2018-04-10T05:38:57.662Z,32.70
2018-04-10T05:41:25.531Z,36.07
2018-04-10T05:43:53.393Z,33.63
2018-04-10T05:46:21.291Z,34.03
2018-04-10T05:48:48.771Z,36.70
2018-04-10T05:51:16.278Z,35.73
2018-04-10T05:53:44.173Z,35.47
2018-04-10T05:56:11.669Z,33.70
2018-04-10T05:58:39.947Z,35.47
2018-04-10T06:01:07.701Z,37.60
2018-04-10T06:03:35.201Z,41.43
2018-04-10T06:06:03.090Z,35.03
2018-04-10T06:08:30.598Z,39.77
2018-04-10T06:10:58.078Z,34.73
2018-04-10T06:13:25.961Z,36.17
2018-04-10T06:15:53.461Z,39.13
2018-04-10T06:18:20.960Z,35.03
2018-04-10T06:20:48.880Z,35.07
2018-04-10T06:23:16.369Z,39.63
2018-04-10T06:25:43.861Z,37.10
2018-04-10T06:28:11.369Z,38.17
2018-04-10T06:30:38.845Z,34.97
2018-04-10T06:33:06.714Z,35.40
2018-04-10T06:35:34.699Z,41.10
2018-04-10T06:38:02.199Z,36.23
2018-04-10T06:40:29.692Z,36.07
2018-04-10T06:42:57.189Z,37.57
2018-04-10T06:45:24.689Z,42.00
2018-04-10T06:47:52.189Z,38.23
2018-04-10T06:50:19.714Z,37.23
2018-04-10T06:52:47.210Z,39.50
2018-04-10T06:55:14.701Z,41.80
2018-04-10T06:57:42.181Z,43.73
2018-04-10T07:00:09.695Z,45.43
2018-04-10T07:02:37.186Z,41.17
2018-04-10T07:05:04.679Z,47.07
2018-04-10T07:07:32.592Z,37.80
2018-04-10T07:10:00.098Z,37.63
2018-04-10T07:12:28.010Z,39.57
2018-04-10T07:14:55.508Z,39.23
2018-04-10T07:17:23.028Z,44.23
2018-04-10T07:19:50.505Z,44.33
2018-04-10T07:22:18.000Z,37.47
2018-04-10T07:24:45.879Z,37.33
2018-04-10T07:27:13.386Z,37.13
2018-04-10T07:29:40.867Z,37.57
2018-04-10T07:32:08.772Z,38.60
2018-04-10T07:34:37.066Z,34.80
2018-04-10T07:37:04.576Z,36.67
2018-04-10T07:39:32.085Z,35.13
2018-04-10T07:41:59.563Z,34.77
2018-04-10T07:44:27.065Z,35.63
2018-04-10T07:46:54.586Z,35.60
2018-04-10T07:49:22.081Z,35.57
2018-04-10T07:51:49.574Z,35.47
2018-04-10T07:54:17.058Z,36.20
2018-04-10T07:56:44.555Z,35.17
2018-04-10T07:59:12.033Z,34.67
2018-04-10T08:01:39.541Z,36.17
2018-04-10T08:04:07.423Z,34.63
2018-04-10T08:06:34.957Z,32.10
2018-04-10T08:09:02.489Z,35.27
2018-04-10T08:14:03.825Z,37.13
2018-04-10T08:16:31.331Z,35.70
2018-04-10T08:18:58.839Z,35.53
2018-04-10T08:21:26.351Z,36.17
2018-04-10T08:23:53.819Z,34.63
2018-04-10T08:26:21.710Z,36.23
2018-04-10T08:28:49.233Z,35.00
2018-04-10T08:31:16.711Z,36.30
2018-04-10T08:33:44.599Z,33.63
2018-04-10T08:36:12.128Z,31.00
2018-04-10T08:38:40.027Z,28.37
2018-04-10T08:41:07.545Z,27.53
2018-04-10T08:43:35.051Z,24.73
2018-04-10T08:46:02.535Z,25.97
2018-04-10T08:48:30.033Z,27.30
2018-04-10T08:53:31.730Z,25.83
2018-04-10T08:55:59.223Z,28.10
2018-04-10T08:58:26.699Z,28.17
2018-04-10T09:00:54.613Z,27.37
2018-04-10T09:03:22.104Z,29.30
2018-04-10T09:05:49.591Z,28.83
2018-04-10T09:08:17.543Z,27.80
2018-04-10T09:10:45.063Z,27.77
2018-04-10T09:13:12.623Z,27.13
2018-04-10T09:15:40.122Z,33.87
2018-04-10T09:18:08.073Z,28.83
2018-04-10T09:20:35.603Z,28.63
2018-04-10T09:23:03.125Z,29.53
2018-04-10T09:25:30.704Z,27.90
2018-04-10T09:27:58.243Z,27.70
2018-04-10T09:30:25.827Z,27.33
2018-04-10T09:32:53.314Z,27.80
2018-04-10T09:35:20.846Z,27.40
2018-04-10T09:37:48.368Z,28.47
2018-04-10T09:40:15.927Z,27.47
2018-04-10T09:42:43.483Z,27.70
2018-04-10T09:45:11.014Z,29.33
2018-04-10T09:47:38.549Z,30.80
2018-04-10T09:50:06.729Z,30.40
2018-04-10T09:52:34.679Z,32.37
2018-04-10T09:55:02.190Z,31.70
2018-04-10T09:57:30.176Z,30.87
2018-04-10T09:59:57.699Z,29.53
2018-04-10T10:02:25.237Z,31.37
2018-04-10T10:04:52.760Z,33.03
2018-04-10T10:07:20.313Z,32.70
2018-04-10T10:09:47.871Z,33.43
2018-04-10T10:12:16.324Z,30.10
2018-04-10T10:14:43.835Z,32.80
2018-04-10T10:17:11.320Z,34.23
2018-04-10T10:19:38.817Z,32.53
2018-04-10T10:22:06.717Z,32.53
2018-04-10T10:24:34.598Z,31.43
2018-04-10T10:27:02.095Z,32.40
2018-04-10T10:29:29.990Z,32.07
2018-04-10T10:31:57.466Z,32.60
2018-04-10T10:34:24.957Z,33.63
2018-04-10T10:36:52.466Z,32.83
2018-04-10T10:39:19.974Z,32.40
2018-04-10T10:41:47.447Z,37.90
2018-04-10T10:44:18.556Z,33.63
2018-04-10T10:46:46.043Z,34.67
2018-04-10T10:49:13.925Z,36.03
2018-04-10T10:51:42.172Z,33.73
2018-04-10T10:54:09.644Z,32.83
2018-04-10T10:56:37.565Z,35.63
2018-04-10T10:59:05.062Z,36.13
2018-04-10T11:01:32.547Z,31.63
2018-04-10T11:04:01.071Z,35.07
2018-04-10T11:06:28.600Z,34.10
2018-04-10T11:08:56.441Z,33.03
2018-04-10T11:11:24.316Z,34.27
2018-04-10T11:13:51.814Z,32.93
2018-04-10T11:16:19.318Z,32.17
2018-04-10T11:18:47.188Z,33.57
2018-04-10T11:21:15.083Z,32.47
2018-04-10T11:23:42.564Z,34.53
2018-04-10T11:26:10.063Z,35.83
2018-04-10T11:28:37.961Z,36.80
2018-04-10T11:31:05.435Z,37.40
2018-04-10T11:33:32.939Z,36.33
2018-04-10T11:36:00.820Z,36.87
2018-04-10T11:38:28.299Z,36.97
2018-04-10T11:40:57.519Z,35.40
2018-04-10T11:43:25.085Z,35.07
2018-04-10T11:45:52.558Z,37.53
2018-04-10T11:48:20.128Z,39.00
2018-04-10T11:50:47.651Z,35.37
2018-04-10T11:53:15.144Z,36.83
2018-04-10T11:55:42.642Z,34.33
2018-04-10T11:58:10.149Z,33.67
2018-04-10T12:00:37.648Z,33.83
2018-04-10T12:03:05.119Z,33.60
2018-04-10T12:05:32.613Z,32.73
2018-04-10T12:08:00.114Z,33.37
2018-04-10T12:10:27.594Z,34.70
2018-04-10T12:12:55.088Z,34.47
2018-04-10T12:15:22.589Z,33.43
2018-04-10T12:17:50.091Z,35.43
2018-04-10T12:20:17.596Z,33.13
2018-04-10T12:22:45.103Z,33.83
2018-04-10T12:25:12.641Z,34.47
2018-04-10T12:27:40.135Z,32.87
2018-04-10T12:30:07.653Z,33.90
2018-04-10T12:32:35.154Z,32.70
2018-04-10T12:35:02.649Z,32.50
2018-04-10T12:37:30.254Z,32.70
2018-04-10T12:39:57.740Z,32.37
2018-04-10T12:42:25.615Z,31.73
2018-04-10T12:44:53.513Z,31.37
2018-04-10T12:47:21.003Z,34.17
2018-04-10T12:49:48.507Z,33.20
2018-04-10T12:52:15.986Z,31.73
2018-04-10T12:54:43.466Z,30.60
2018-04-10T12:57:10.963Z,31.53
2018-04-10T12:59:38.854Z,32.87
2018-04-10T13:02:06.328Z,33.57
2018-04-10T13:04:33.844Z,34.60
2018-04-10T13:07:01.726Z,33.67
2018-04-10T13:09:29.223Z,33.60
2018-04-10T13:11:57.165Z,34.17
2018-04-10T13:14:24.669Z,32.60
2018-04-10T13:16:52.155Z,32.30
2018-04-10T13:19:20.062Z,31.53
2018-04-10T13:21:47.553Z,32.37
2018-04-10T13:24:15.035Z,32.27
2018-04-10T13:26:42.974Z,31.93
2018-04-10T13:29:10.433Z,31.60
2018-04-10T13:31:37.958Z,31.80
2018-04-10T13:34:05.457Z,34.00
2018-04-10T13:36:33.344Z,34.77
2018-04-10T13:39:00.859Z,33.47
2018-04-10T13:41:34.707Z,33.10
2018-04-10T13:44:02.618Z,33.83
2018-04-10T13:46:30.144Z,35.73
2018-04-10T13:48:57.647Z,33.43
2018-04-10T13:51:25.139Z,32.60
2018-04-10T13:53:53.567Z,35.23
2018-04-10T13:56:21.065Z,36.13
2018-04-10T13:58:48.965Z,36.90
2018-04-10T14:01:16.469Z,35.33
2018-04-10T14:03:43.967Z,35.07
2018-04-10T14:06:11.882Z,36.37
2018-04-10T14:08:39.373Z,34.20
2018-04-10T14:11:08.924Z,33.00
2018-04-10T14:13:36.433Z,34.27
2018-04-10T14:16:04.335Z,33.63
2018-04-10T14:18:31.867Z,34.23
2018-04-10T14:20:59.735Z,33.77
2018-04-10T14:23:27.622Z,33.87
2018-04-10T14:25:55.134Z,35.40
2018-04-10T14:28:22.650Z,35.93
2018-04-10T14:30:50.134Z,37.23
2018-04-10T14:33:17.638Z,35.97
2018-04-10T14:35:45.554Z,36.83
2018-04-10T14:38:13.066Z,37.33
2018-04-10T14:40:40.962Z,35.63
2018-04-10T14:43:08.436Z,35.40
2018-04-10T14:45:37.902Z,36.30
2018-04-10T14:48:06.301Z,42.80
2018-04-10T14:50:33.819Z,35.43
2018-04-10T14:53:01.726Z,33.53
2018-04-10T14:55:29.242Z,34.53
2018-04-10T14:57:57.123Z,34.63
2018-04-10T15:00:24.653Z,33.77
2018-04-10T15:02:52.146Z,33.57
2018-04-10T15:05:19.659Z,33.07
2018-04-10T15:07:47.162Z,33.73
2018-04-10T15:10:14.690Z,32.57
2018-04-10T15:12:42.169Z,32.47
2018-04-10T15:15:09.643Z,32.83
2018-04-10T15:17:37.136Z,32.37
2018-04-10T15:20:05.753Z,33.23
2018-04-10T15:22:33.251Z,30.77
2018-04-10T15:25:00.758Z,31.60
2018-04-10T15:27:28.294Z,29.90
2018-04-10T15:29:55.788Z,30.93
2018-04-10T15:32:23.717Z,32.13
2018-04-10T15:34:51.242Z,29.20
2018-04-10T15:37:18.755Z,30.40
2018-04-10T15:39:46.247Z,29.73
2018-04-10T15:42:13.722Z,29.70
2018-04-10T15:44:41.254Z,28.37
2018-04-10T15:47:08.760Z,28.23
2018-04-10T15:49:36.250Z,28.10
2018-04-10T15:52:04.139Z,28.13
2018-04-10T15:54:31.635Z,29.17
2018-04-10T15:56:59.133Z,21.17
2018-04-10T15:59:27.037Z,23.77
2018-04-10T16:01:54.555Z,25.07
2018-04-10T16:04:22.436Z,25.27
2018-04-10T16:06:49.952Z,24.00
2018-04-10T16:09:17.486Z,22.80
2018-04-10T16:11:44.984Z,24.03
2018-04-10T16:14:12.493Z,25.73
2018-04-10T16:16:39.991Z,23.53
2018-04-10T16:19:07.467Z,23.00
2018-04-10T16:21:35.411Z,24.77
2018-04-10T16:24:02.891Z,24.97
2018-04-10T16:26:30.807Z,25.47
2018-04-10T16:28:58.310Z,23.93
2018-04-10T16:31:26.201Z,25.47
2018-04-10T16:33:53.723Z,23.67
2018-04-10T16:36:21.203Z,23.57
2018-04-10T16:38:49.105Z,25.03
2018-04-10T16:41:16.614Z,25.23
2018-04-10T16:43:44.520Z,24.43
2018-04-10T16:46:12.022Z,25.53
2018-04-10T16:48:39.521Z,22.97
2018-04-10T16:51:07.008Z,24.30
2018-04-10T16:53:34.629Z,23.43
2018-04-10T16:56:02.523Z,25.60
2018-04-10T16:58:30.007Z,27.47
2018-04-10T17:00:57.505Z,25.97
2018-04-10T17:03:25.388Z,25.37
2018-04-10T17:05:52.906Z,27.10
2018-04-10T17:08:20.392Z,28.27
2018-04-10T17:10:48.289Z,26.77
2018-04-10T17:13:16.818Z,29.07
2018-04-10T17:15:44.331Z,28.43
2018-04-10T17:18:11.835Z,31.07
2018-04-10T17:20:39.332Z,26.00
2018-04-10T17:23:06.836Z,27.67
2018-04-10T17:25:34.336Z,25.33
2018-04-10T17:28:01.831Z,28.37
2018-04-10T17:30:29.338Z,32.47
2018-04-10T17:32:57.218Z,31.03
2018-04-10T17:35:24.714Z,29.13
2018-04-10T17:37:52.242Z,29.80
2018-04-10T17:40:19.771Z,28.37
2018-04-10T17:42:47.647Z,27.63
2018-04-10T17:45:15.544Z,30.40
2018-04-10T17:47:43.045Z,30.83
2018-04-10T17:50:10.580Z,28.30
2018-04-10T17:52:38.106Z,29.43
2018-04-10T17:55:05.624Z,28.70
2018-04-10T17:57:33.131Z,29.10
2018-04-10T18:00:00.633Z,27.90
2018-04-10T18:02:28.114Z,29.07
2018-04-10T18:04:56.006Z,28.37
2018-04-10T18:07:23.528Z,25.93
2018-04-10T18:09:51.081Z,30.27
2018-04-10T18:12:18.986Z,29.20
2018-04-10T18:14:46.504Z,29.93
2018-04-10T18:17:13.979Z,28.00
2018-04-10T18:19:46.559Z,26.60
2018-04-10T18:22:14.161Z,31.33
2018-04-10T18:24:41.654Z,28.73
2018-04-10T18:27:10.326Z,29.67
2018-04-10T18:29:43.681Z,28.57
2018-04-10T18:32:15.504Z,31.43
2018-04-10T18:34:44.983Z,27.30
2018-04-10T18:37:13.983Z,31.47
2018-04-10T18:39:41.565Z,25.77
2018-04-10T18:42:09.471Z,27.97
2018-04-10T18:44:37.452Z,28.30
2018-04-10T18:47:04.962Z,29.43
2018-04-10T18:49:32.469Z,27.57
2018-04-10T18:51:59.972Z,28.10
2018-04-10T18:54:27.885Z,27.17
2018-04-10T18:56:55.369Z,29.20
2018-04-10T18:59:22.903Z,27.93
2018-04-10T19:01:50.397Z,27.07
2018-04-10T19:04:17.905Z,28.87
2018-04-10T19:06:45.415Z,28.13
2018-04-10T19:09:13.366Z,28.53
2018-04-10T19:11:40.922Z,26.73
2018-04-10T19:14:08.423Z,28.00
2018-04-10T19:16:35.951Z,31.87
2018-04-10T19:19:03.451Z,31.53
2018-04-10T19:21:30.947Z,27.90
2018-04-10T19:23:58.457Z,28.63
2018-04-10T19:26:25.946Z,28.00
2018-04-10T19:28:53.517Z,30.60
2018-04-10T19:31:21.008Z,31.00
2018-04-10T19:33:48.918Z,29.23
2018-04-10T19:36:16.444Z,29.20
2018-04-10T19:38:45.054Z,30.10
2018-04-10T19:41:12.599Z,29.80
2018-04-10T19:43:40.210Z,33.67
2018-04-10T19:46:07.743Z,27.57
2018-04-10T19:48:35.255Z,31.93
2018-04-10T19:51:03.194Z,30.63
2018-04-10T19:53:30.760Z,28.63
2018-04-10T19:55:58.302Z,29.30
2018-04-10T19:58:25.878Z,31.90
2018-04-10T20:00:54.382Z,27.30
2018-04-10T20:03:22.370Z,28.93
2018-04-10T20:05:49.956Z,30.63
2018-04-10T20:08:17.531Z,27.70
2018-04-10T20:10:45.087Z,31.10
2018-04-10T20:13:12.631Z,29.17
2018-04-10T20:15:40.262Z,29.03
2018-04-10T20:18:08.805Z,28.63
2018-04-10T20:20:37.804Z,32.80
2018-04-10T20:23:05.443Z,27.70
2018-04-10T20:25:33.008Z,27.10
2018-04-10T20:28:00.496Z,26.37
2018-04-10T20:30:28.375Z,28.00
2018-04-10T20:32:55.881Z,28.30
2018-04-10T20:35:23.379Z,29.00
2018-04-10T20:37:50.891Z,26.37
2018-04-10T20:40:18.405Z,25.63
2018-04-10T20:42:45.890Z,27.67
2018-04-10T20:45:13.369Z,27.17
2018-04-10T20:47:40.873Z,27.77
2018-04-10T20:50:08.372Z,28.17
2018-04-10T20:52:35.853Z,27.90
2018-04-10T20:55:03.349Z,30.93
2018-04-10T20:57:30.857Z,28.80
2018-04-10T20:59:58.430Z,28.43
2018-04-10T21:02:25.951Z,27.83
2018-04-10T21:04:53.467Z,29.93
2018-04-10T21:07:21.377Z,28.37
2018-04-10T21:09:48.862Z,30.30
2018-04-10T21:12:16.370Z,29.27
2018-04-10T21:14:43.897Z,30.90
2018-04-10T21:17:12.109Z,29.67
2018-04-10T21:19:39.610Z,30.57
2018-04-10T21:22:07.156Z,29.10
2018-04-10T21:24:34.661Z,29.30
2018-04-10T21:27:02.543Z,30.07
2018-04-10T21:29:30.027Z,30.57
2018-04-10T21:31:57.507Z,29.33
2018-04-10T21:34:25.367Z,30.30
2018-04-10T21:36:53.598Z,29.20
2018-04-10T21:39:21.302Z,29.77
2018-04-10T21:41:49.382Z,31.17
2018-04-10T21:44:16.874Z,29.23
2018-04-10T21:46:44.765Z,29.43
2018-04-10T21:49:12.276Z,29.23
2018-04-10T21:51:40.165Z,29.57
2018-04-10T21:54:08.039Z,30.57
2018-04-10T21:56:35.544Z,27.50
2018-04-10T21:59:03.022Z,30.77
2018-04-10T22:01:30.499Z,29.30
2018-04-10T22:03:58.393Z,30.53
2018-04-10T22:06:25.896Z,29.10
2018-04-10T22:08:53.433Z,28.70
2018-04-10T22:11:20.933Z,30.37
2018-04-10T22:13:48.823Z,30.57
2018-04-10T22:16:16.302Z,31.17
2018-04-10T22:18:43.820Z,32.00
2018-04-10T22:21:11.321Z,31.67
2018-04-10T22:23:38.817Z,32.37
2018-04-10T22:26:06.303Z,30.73
2018-04-10T22:28:33.806Z,32.00
2018-04-10T22:31:01.287Z,34.00
2018-04-10T22:33:28.770Z,32.37
2018-04-10T22:35:56.483Z,31.50
2018-04-10T22:38:24.356Z,33.37
2018-04-10T22:40:52.240Z,32.03
2018-04-10T22:43:19.725Z,30.53
2018-04-10T22:45:47.246Z,32.70
2018-04-10T22:48:14.723Z,30.53
2018-04-10T22:50:42.240Z,30.90
2018-04-10T22:53:09.691Z,32.47
2018-04-10T22:55:37.171Z,31.33
2018-04-10T22:58:05.078Z,31.43
2018-04-10T23:00:48.262Z,30.63
2018-04-10T23:03:16.157Z,31.77
2018-04-10T23:05:43.655Z,33.40
2018-04-10T23:08:11.151Z,32.07
2018-04-10T23:10:39.026Z,33.90
2018-04-10T23:13:06.948Z,30.97
2018-04-10T23:15:34.482Z,32.57
2018-04-10T23:18:01.986Z,36.10
2018-04-10T23:20:29.510Z,32.53
2018-04-10T23:22:56.990Z,32.40
2018-04-10T23:25:24.498Z,30.07
2018-04-10T23:27:52.389Z,34.80
2018-04-10T23:30:19.894Z,33.13
2018-04-10T23:32:47.379Z,31.40
2018-04-10T23:35:15.274Z,35.10
2018-04-10T23:37:42.755Z,31.30
2018-04-10T23:40:10.238Z,31.97
2018-04-10T23:42:37.754Z,35.80
2018-04-10T23:45:05.292Z,32.37
2018-04-10T23:47:32.794Z,31.63
2018-04-10T23:50:00.300Z,32.03
2018-04-10T23:52:27.821Z,32.60
2018-04-10T23:54:55.337Z,35.87
2018-04-10T23:57:22.837Z,32.23
2018-04-10T23:59:50.309Z,34.53
